• Join FlightAware (Why Join?)
  • Login
  • US Flag 
06:22AM EST


 

Airport Tracker/Info


-or-


 

Live Flight TrackerFlight Track Log ✈ RPA3159 ✈ 13-Jul-2013 ✈ KPHL - KMSP

Flight Track Log - Related Links

Times and Time Zones

All times are in EDT time to prevent confusion due to time zone crossing. See the RPA3159 flight status page for this flight to view local times or setup timezone preferences in your user account.

Time Position Orientation Groundspeed Altitude Reporting Facility
EDT Latitude Longitude Course Direction KTS MPH feet Rate Location/Type
02:50PM 39.8833 -75.2000 281° West 170 196 800  Level Philadelphia TRACON
02:51PM 39.9167 -75.1167 62° Northeast 233 268 3,400 2,220 Climbing Philadelphia TRACON
02:52PM 40.3121 -75.6931 311° West  Level FlightAware Approximate
02:52PM 39.9667 -75.1167 360° North 240 276 6,200  Level Philadelphia TRACON
02:53PM 40.4342 -75.8878 285° West  Level FlightAware Approximate
02:53PM 40.0000 -75.2000 298° West 300 345 8,200  Level Philadelphia TRACON
02:54PM 40.4771 -76.1353 285° West  Level FlightAware Approximate
02:54PM 40.0500 -75.2833 308° West 298 343 10,000  Level Philadelphia TRACON
02:55PM 40.5157 -76.3764 281° West  Level FlightAware Approximate
02:56PM 40.1639 -75.4672 309° West 334 384 12,500  Level New York Center
02:57PM 40.2247 -75.5636 310° West 341 392 14,800 2,040 Climbing New York Center
02:58PM 40.2894 -75.6606 311° West 347 399 16,600 1,080 Climbing New York Center
02:59PM 40.3561 -75.7608 311° West 352 405 17,000 240 Climbing New York Center
03:00PM 40.4147 -75.8522 310° West 357 411 17,100 240 Climbing New York Center
03:01PM 40.4572 -75.9781 294° West 354 407 17,500 960 Climbing New York Center
03:02PM 40.4742 -76.1103 280° West 365 420 19,100 1,680 Climbing New York Center
03:03PM 40.4953 -76.2431 282° West 371 427 20,800 1,680 Climbing New York Center
03:04PM 40.5200 -76.3814 283° West 376 433 22,600 1,560 Climbing New York Center
03:05PM 40.5425 -76.5200 282° West 381 438 24,000 1,260 Climbing New York Center
03:06PM 40.5656 -76.6447 284° West 381 438 25,100 1,200 Climbing New York Center
03:07PM 40.5875 -76.7889 281° West 392 451 26,400 1,140 Climbing New York Center
03:08PM 40.6133 -76.9361 283° West 405 466 27,500 1,080 Climbing New York Center
03:09PM 40.6386 -77.0861 283° West 411 473 28,600 1,020 Climbing New York Center
03:11PM 40.6772 -77.3194 282° West 429 494 30,100 900 Climbing Cleveland Center
03:12PM 40.7022 -77.4744 282° West 429 494 31,000 840 Climbing Cleveland Center
03:13PM 40.7272 -77.6294 282° West 429 494 31,800 780 Climbing Cleveland Center
03:14PM 40.7522 -77.7872 282° West 435 501 32,600 780 Climbing Cleveland Center
03:15PM 40.7767 -77.9453 282° West 440 506 33,400 660 Climbing Cleveland Center
03:16PM 40.8011 -78.1008 282° West 440 506 34,000 300 Climbing Cleveland Center
03:17PM 40.8253 -78.2589 281° West 440 506 34,000  Level Cleveland Center
03:18PM 40.8558 -78.4308 283° West 445 512 34,000  Level Cleveland Center
03:19PM 40.8772 -78.5839 281° West 445 512 34,000  Level Cleveland Center
03:20PM 40.9422 -78.7250 301° West 434 499 34,000  Level Cleveland Center
03:21PM 41.0256 -78.8575 310° West 448 516 34,000  Level Cleveland Center
03:22PM 41.1067 -78.9931 308° West 467 537 34,000  Level Cleveland Center
03:23PM 41.1878 -79.1292 308° West 472 543 34,000  Level Cleveland Center
03:24PM 41.2708 -79.2653 309° West 477 549 34,000  Level Cleveland Center
03:25PM 41.3536 -79.3964 310° West 477 549 34,000  Level Cleveland Center
03:26PM 41.4342 -79.5361 308° West 477 549 34,000  Level Cleveland Center
03:27PM 41.5081 -79.6569 309° West 484 557 34,000  Level Cleveland Center
03:28PM 41.5883 -79.7919 309° West 479 551 34,000  Level Cleveland Center
03:29PM 41.6706 -79.9272 309° West 479 551 34,000  Level Cleveland Center
03:30PM 41.7525 -80.0656 308° West 479 551 34,000  Level Cleveland Center
03:31PM 41.8342 -80.2014 309° West 479 551 34,000  Level Cleveland Center
03:32PM 41.9158 -80.3403 308° West 479 551 34,000  Level Cleveland Center
03:33PM 41.9953 -80.4825 307° West 479 551 34,000  Level Cleveland Center
03:34PM 42.0789 -80.6222 309° West 484 557 34,000  Level Cleveland Center
03:35PM 42.1578 -80.7597 308° West 474 545 34,000  Level Cleveland Center
03:36PM 42.2389 -80.9000 308° West 474 545 34,000  Level Cleveland Center
03:37PM 42.3258 -81.0522 308° West 474 545 34,000  Level Cleveland Center
03:38PM 42.4064 -81.1906 308° West 474 545 34,000  Level Cleveland Center
03:39PM 42.4869 -81.3322 308° West 469 540 34,000  Level Cleveland Center
03:40PM 42.5672 -81.4711 308° West 469 540 34,000  Level Cleveland Center
03:41PM 42.6472 -81.6164 307° West 469 540 34,000  Level Cleveland Center
03:42PM 42.7253 -81.7533 308° West 469 540 34,000  Level Cleveland Center
03:43PM 42.8008 -81.8906 307° West 462 532 34,000  Level Cleveland Center
03:44PM 42.8783 -82.0281 308° West 462 532 34,000  Level Cleveland Center
03:45PM 42.9536 -82.1631 307° West 462 532 34,000  Level Cleveland Center
03:46PM 43.0269 -82.2986 307° West 455 524 34,000  Level Cleveland Center
03:47PM 43.0978 -82.4314 306° West 449 517 34,000 -900 Level Cleveland Center
03:48PM 43.1686 -82.5614 307° West 438 504 32,200 -1,800 Descending Cleveland Center
03:49PM 43.2269 -82.6689 307° West 438 504 30,400 -1,980 Descending Cleveland Center
03:50PM 43.3050 -82.8397 302° West 443 510 28,300 -1,200 Descending Cleveland Center
03:51PM 43.3667 -82.9906 299° West 448 516 28,000 -180 Descending Cleveland Center
03:52PM 43.4322 -83.1447 300° West 453 521 28,000  Level Cleveland Center
03:53PM 43.4953 -83.2989 299° West 460 529 28,000  Level Cleveland Center
03:53PM 43.5500 -83.4333 299° West 460 529 28,000  Level Toronto Center
03:54PM 43.6000 -83.6000 293° West 460 529 28,000  Level Toronto Center
03:55PM 43.6442 -83.6681 312° West 464 534 28,000  Level Minneapolis Center
03:56PM 43.7206 -83.8556 299° West 467 537 28,000  Level Minneapolis Center
03:57PM 43.7828 -84.0108 299° West 466 536 28,000  Level Minneapolis Center
03:58PM 43.8525 -84.1861 299° West 443 510 28,000  Level Minneapolis Center
03:59PM 43.9108 -84.3314 299° West 436 502 28,000  Level Minneapolis Center
04:00PM 44.0039 -84.4656 314° West 445 512 28,000  Level Minneapolis Center
04:01PM 44.0961 -84.5772 319° Northwest 443 510 28,000  Level Minneapolis Center
04:02PM 44.1931 -84.6906 320° Northwest 452 520 28,000  Level Minneapolis Center
04:04PM 44.2892 -84.8050 320° Northwest 455 524 28,000  Level Minneapolis Center
04:05PM 44.3389 -84.9311 299° West 469 540 28,000  Level Minneapolis Center
04:06PM 44.3678 -85.1856 279° West 473 544 28,000  Level Minneapolis Center
04:07PM 44.3892 -85.3689 279° West 477 549 28,000  Level Minneapolis Center
04:08PM 44.4089 -85.5514 279° West 476 548 28,000  Level Minneapolis Center
04:09PM 44.4289 -85.7336 279° West 474 545 28,000  Level Minneapolis Center
04:10PM 44.4483 -85.9167 279° West 473 544 28,000  Level Minneapolis Center
04:11PM 44.4664 -86.1000 278° West 472 543 28,000  Level Minneapolis Center
04:12PM 44.4858 -86.2831 279° West 471 542 28,000  Level Minneapolis Center
04:13PM 44.5042 -86.4667 278° West 472 543 28,000  Level Minneapolis Center
04:14PM 44.5306 -86.7200 278° West 469 540 28,000  Level Minneapolis Center
04:15PM 44.5478 -86.8997 278° West 468 539 28,000  Level Minneapolis Center
04:16PM 44.5644 -87.0767 278° West 462 532 28,000  Level Minneapolis Center
04:17PM 44.5825 -87.2556 278° West 462 532 28,000  Level Minneapolis Center
04:18PM 44.5983 -87.4300 277° West 454 522 28,000  Level Minneapolis Center
04:19PM 44.6183 -87.6378 278° West 451 519 28,000  Level Minneapolis Center
04:20PM 44.6333 -87.8119 277° West 450 518 28,000  Level Minneapolis Center
04:21PM 44.6500 -88.0108 277° West 444 511 28,000  Level Minneapolis Center
04:22PM 44.6650 -88.1814 277° West 442 509 28,000  Level Minneapolis Center
04:24PM 44.6789 -88.3531 277° West 444 511 28,000  Level Minneapolis Center
04:25PM 44.6936 -88.5264 277° West 447 514 28,000  Level Minneapolis Center
04:26PM 44.7128 -88.7572 277° West 447 514 28,000  Level Minneapolis Center
04:27PM 44.7258 -88.9283 276° West 444 511 28,000  Level Minneapolis Center
04:28PM 44.7392 -89.1061 276° West 454 522 28,000  Level Minneapolis Center
04:29PM 44.7528 -89.2825 276° West 455 524 28,000  Level Minneapolis Center
04:30PM 44.7669 -89.4836 276° West 450 518 28,000  Level Minneapolis Center
04:31PM 44.7806 -89.6558 276° West 445 512 28,000  Level Minneapolis Center
04:32PM 44.7922 -89.8319 275° West 449 517 28,000  Level Minneapolis Center
04:33PM 44.8108 -90.0136 278° West 465 535 28,000  Level Minneapolis Center
04:34PM 44.8314 -90.1978 279° West 474 545 28,000  Level Minneapolis Center
04:35PM 44.8550 -90.4075 279° West 473 544 28,000 -720 Level Minneapolis Center
04:36PM 44.8758 -90.5911 279° West 474 545 26,600 -1,500 Descending Minneapolis Center
04:37PM 44.8950 -90.7686 279° West 462 532 25,000 -1,620 Descending Minneapolis Center
04:38PM 44.9136 -90.9444 279° West 450 518 23,300 -1,560 Descending Minneapolis Center
04:39PM 44.9294 -91.1086 278° West 433 498 21,800 -1,500 Descending Minneapolis Center
04:40PM 44.9478 -91.2700 279° West 422 486 20,300 -1,440 Descending Minneapolis Center
04:41PM 44.9642 -91.4256 279° West 414 476 18,900 -1,500 Descending Minneapolis Center
04:42PM 44.9822 -91.6069 278° West 401 461 17,200 -1,500 Descending Minneapolis Center
04:43PM 44.9981 -91.7561 279° West 391 450 15,800 -1,320 Descending Minneapolis Center
04:44PM 45.0119 -91.9008 278° West 377 434 14,500 -1,140 Descending Minneapolis Center
04:45PM 45.0233 -92.0139 278° West 367 422 13,500 -1,260 Descending Minneapolis Center
04:46PM 45.0392 -92.1814 278° West 361 415 11,900 -1,200 Descending Minneapolis Center
04:48PM 45.0425 -92.3286 272° West 313 360 11,000 -540 Descending Minneapolis Center
04:49PM 45.0242 -92.4442 257° West 302 348 10,900 -540 Descending Minneapolis Center
04:50PM 45.0072 -92.5506 257° West 280 322 10,000 -480 Descending Minneapolis Center
04:51PM 44.9914 -92.6553 258° West 275 316 10,000  Level Minneapolis Center
04:52PM 44.9783 -92.7389 258° West 274 315 10,000  Level Minneapolis Center
04:53PM 44.9578 -92.8636 257° West 273 314 10,000 -300 Level Minneapolis Center
04:54PM 44.9375 -92.9878 257° West 272 313 9,400 -1,020 Descending Minneapolis Center
04:55PM 44.8989 -93.0789 239° Southwest 273 314 8,000 -720 Descending Minneapolis Center
04:56PM 44.8592 -93.1692 238° Southwest 274 315 8,000  Level Minneapolis Center
04:57PM 44.8253 -93.2439 237° Southwest 230 265 8,000  Level Minneapolis Center
04:58PM 44.8422 -93.3558 282° West 219 252 8,000  Level Minneapolis Center
04:59PM 44.8644 -93.4344 292° West 217 250 8,000  Level Minneapolis Center
05:00PM 44.8875 -93.5128 293° West 217 250 8,000  Level Minneapolis Center
05:02PM 44.9361 -93.6122 305° West 223 257 8,000 -300 Level Minneapolis Center
05:03PM 44.9850 -93.6553 328° Northwest 239 275 7,400 -540 Descending Minneapolis Center
05:04PM 45.0214 -93.5653 60° Northeast 228 262 6,900 -1,020 Descending Minneapolis Center
05:05PM 44.9969 -93.4883 114° Southeast 219 252 5,400 -1,440 Descending Minneapolis Center
05:06PM 44.9694 -93.4228 121° Southeast 196 226 4,000 -1,200 Descending Minneapolis Center
05:07PM 44.9456 -93.3683 122° Southeast 169 194 3,000 -900 Descending Minneapolis Center
05:08PM 44.9200 -93.3089 121° Southeast 150 173 2,000 -720 Descending Minneapolis Center
05:09PM 44.9017 -93.2664 121° Southeast 130 150 1,400 -300 Descending Minneapolis Center
05:10PM 44.8789 -93.2236 127° Southeast 122 140 1,500 600 Climbing Minneapolis Center
05:11PM 44.8214 -93.2161 175° South 187 215 2,700 1,140 Climbing Minneapolis Center
05:12PM 44.7833 -93.2475 210° Southwest 203 234 4,200 960 Climbing Minneapolis Center
05:13PM 44.8292 -93.3411 305° West 251 289 5,000 360 Climbing Minneapolis Center
05:14PM 44.8706 -93.4186 307° West 250 288 5,000  Level Minneapolis Center
05:15PM 44.8997 -93.4931 299° West 214 246 5,000  Level Minneapolis Center
05:16PM 44.9314 -93.5725 299° West 195 224 5,000  Level Minneapolis Center
05:17PM 44.9581 -93.6389 300° West 196 226 5,000  Level Minneapolis Center
05:19PM 44.9836 -93.7067 298° West 197 227 5,000  Level Minneapolis Center
05:20PM 45.0333 -93.6842 18° North 210 242 5,000  Level Minneapolis Center
05:21PM 45.0425 -93.6233 78° East 211 243 5,000  Level Minneapolis Center
05:22PM 45.0183 -93.5378 112° Southeast 196 226 5,000 -300 Level Minneapolis Center
05:23PM 44.9853 -93.4606 121° Southeast 191 220 4,400 -780 Descending Minneapolis Center
05:24PM 44.9592 -93.3994 121° Southeast 183 211 3,500 -900 Descending Minneapolis Center